Etusivu
METAR-TAF:

METAR-TAF

Lentoasemat :

Menominee-Marinette Twin County Airport

Menominee, Michigan, Yhdysvallat

Leveyspiiri: 45-08N, Pituuspiiri: 087-38W, korkeus merenpinnasta: 191 m

Tämänhetkinen sää

Tämä raportti tehtiin 22 minuuttia sitten, kello 15.56 UTC
Tuuli 15 kn pohjoisesta puuskistuen 23 kn:hen
Lämpötila 4°C
Kosteus 70%
Ilmanpaine 1019 hPa
Näkyvyys: 16.1 km
Hajonneita pilviä 2400 ft:n korkeudessa

METAR: KMNM 301556Z AUTO 36015G23KT 10SM BKN024 04/M01 A3009 RMK AO2 PK WND 01026/1520 SLP193 T00441011 $

Aika: 12:18 (16:18 UTC)


TAF: puuttuu

Säähavainnot ja -ennusteet yli 4000 lentoasemalta (METAR- ja TAF-raportit).

Käytössä olevat sääasemat on merkitty karttaan keltaisilla ja punaisilla pisteillä.

Aseta hiiri pisteen päälle nähdäksesi sääaseman nimen.

Klikkaa sitten nähdäksesi säähavainnot ja -ennusteet.

Kartan vaihtaminen: klikkaa mustalla rastilla varustettuja vihreitä pisteitä, niin voit zoomata sisään; viivalla varustettua vihreää pistettä, niin voit zoomata ulos tai vihreitä nuolia, niin pääset viereisille kartoille.


METAR-TAF: